createdAt,value
2023-10-21T00:02:19.475Z,8.41
2023-10-21T00:04:46.070Z,8.41
2023-10-21T00:07:12.365Z,8.43
2023-10-21T00:09:38.816Z,8.42
2023-10-21T00:12:07.170Z,8.45
2023-10-21T00:14:34.349Z,8.43
2023-10-21T00:17:00.857Z,8.39
2023-10-21T00:19:27.429Z,8.46
2023-10-21T00:21:54.162Z,8.45
2023-10-21T00:24:21.023Z,8.45
2023-10-21T00:26:48.797Z,8.44
2023-10-21T00:29:16.608Z,8.39
2023-10-21T00:31:46.524Z,8.39
2023-10-21T00:34:13.081Z,8.41
2023-10-21T00:36:39.333Z,8.41
2023-10-21T00:39:11.367Z,8.39
2023-10-21T00:41:39.074Z,8.41
2023-10-21T00:44:05.994Z,8.37
2023-10-21T00:46:32.555Z,8.38
2023-10-21T00:48:59.311Z,8.39
2023-10-21T00:51:26.293Z,8.37
2023-10-21T00:53:53.392Z,8.37
2023-10-21T00:56:20.039Z,8.36
2023-10-21T00:58:46.259Z,8.34
2023-10-21T01:01:13.952Z,8.35
2023-10-21T01:03:40.894Z,8.36
2023-10-21T01:06:07.679Z,8.36
2023-10-21T01:08:43.924Z,8.31
2023-10-21T01:11:11.132Z,8.32
2023-10-21T01:13:37.571Z,8.34
2023-10-21T01:16:06.094Z,8.34
2023-10-21T01:18:38.624Z,8.38
2023-10-21T01:21:05.588Z,8.32
2023-10-21T01:23:34.297Z,8.32
2023-10-21T01:26:01.405Z,8.27
2023-10-21T01:28:29.416Z,8.28
2023-10-21T01:30:55.860Z,8.26
2023-10-21T01:33:22.519Z,8.27
2023-10-21T01:35:49.150Z,8.30
2023-10-21T01:38:15.568Z,8.28
2023-10-21T01:40:42.025Z,8.27
2023-10-21T01:43:08.338Z,8.28
2023-10-21T01:45:38.325Z,8.22
2023-10-21T01:48:05.894Z,8.22
2023-10-21T01:50:32.860Z,8.24
2023-10-21T01:52:59.066Z,8.26
2023-10-21T01:55:25.465Z,8.22
2023-10-21T01:57:51.879Z,8.23
2023-10-21T02:00:21.294Z,8.22
2023-10-21T02:02:53.982Z,8.21
2023-10-21T02:05:22.518Z,8.24
2023-10-21T02:07:49.552Z,8.22
2023-10-21T02:10:17.777Z,8.26
2023-10-21T02:12:44.155Z,8.24
2023-10-21T02:15:15.491Z,8.24
2023-10-21T02:17:43.672Z,8.23
2023-10-21T02:20:13.222Z,8.18
2023-10-21T02:22:39.758Z,8.19
2023-10-21T02:25:14.823Z,8.19
2023-10-21T02:27:42.174Z,8.20
2023-10-21T02:30:13.037Z,8.19
2023-10-21T02:32:43.853Z,8.20
2023-10-21T02:35:10.365Z,8.17
2023-10-21T02:37:36.589Z,8.16
2023-10-21T02:40:04.381Z,8.19
2023-10-21T02:42:31.677Z,8.22
2023-10-21T02:44:58.300Z,8.21
2023-10-21T02:47:25.125Z,8.20
2023-10-21T02:49:51.424Z,8.19
2023-10-21T02:52:18.060Z,8.21
2023-10-21T02:54:44.246Z,8.20
2023-10-21T02:57:10.653Z,8.24
2023-10-21T02:59:36.924Z,8.22
2023-10-21T03:02:03.540Z,8.23
2023-10-21T03:04:29.786Z,8.26
2023-10-21T03:06:56.799Z,8.22
2023-10-21T03:09:23.659Z,8.20
2023-10-21T03:11:50.006Z,8.22
2023-10-21T03:14:16.204Z,8.24
2023-10-21T03:16:43.320Z,8.29
2023-10-21T03:19:10.566Z,8.28
2023-10-21T03:21:36.858Z,8.30
2023-10-21T03:24:04.033Z,8.26
2023-10-21T03:26:30.286Z,8.27
2023-10-21T03:28:57.623Z,8.24
2023-10-21T03:31:23.988Z,8.24
2023-10-21T03:33:50.211Z,8.24
2023-10-21T03:36:16.566Z,8.26
2023-10-21T03:38:42.976Z,8.23
2023-10-21T03:41:13.039Z,8.23
2023-10-21T03:43:39.506Z,8.23
2023-10-21T03:46:08.182Z,8.22
2023-10-21T03:48:35.031Z,8.24
2023-10-21T03:51:12.388Z,8.24
2023-10-21T03:53:41.052Z,8.24
2023-10-21T03:56:09.000Z,8.24
2023-10-21T03:58:36.385Z,8.22
2023-10-21T04:01:02.963Z,8.22
2023-10-21T04:03:29.882Z,8.24
2023-10-21T04:05:57.032Z,8.26
2023-10-21T04:08:24.410Z,8.27
2023-10-21T04:10:53.227Z,8.27
2023-10-21T04:13:19.843Z,8.26
2023-10-21T04:15:46.103Z,8.23
2023-10-21T04:18:13.079Z,8.26
2023-10-21T04:20:39.871Z,8.24
2023-10-21T04:23:06.203Z,8.22
2023-10-21T04:25:33.528Z,8.24
2023-10-21T04:27:59.892Z,8.27
2023-10-21T04:30:26.274Z,8.27
2023-10-21T04:32:52.917Z,8.28
2023-10-21T04:35:19.907Z,8.26
2023-10-21T04:37:46.240Z,8.26
2023-10-21T04:40:13.954Z,8.27
2023-10-21T04:42:40.418Z,8.26
2023-10-21T04:45:08.744Z,8.26
2023-10-21T04:47:35.226Z,8.23
2023-10-21T04:50:01.682Z,8.21
2023-10-21T04:52:28.102Z,8.21
2023-10-21T04:54:54.341Z,8.28
2023-10-21T04:57:20.533Z,8.26
2023-10-21T04:59:47.020Z,8.27
2023-10-21T05:02:13.399Z,8.28
2023-10-21T05:04:40.793Z,8.26
2023-10-21T05:07:07.728Z,8.23
2023-10-21T05:09:33.959Z,8.23
2023-10-21T05:12:02.977Z,8.23
2023-10-21T05:14:29.314Z,8.19
2023-10-21T05:16:55.937Z,8.20
2023-10-21T05:19:23.650Z,8.22
2023-10-21T05:21:50.537Z,8.23
2023-10-21T05:24:16.918Z,8.24
2023-10-21T05:26:43.099Z,8.24
2023-10-21T05:29:12.568Z,8.26
2023-10-21T05:31:39.083Z,8.23
2023-10-21T05:34:05.475Z,8.27
2023-10-21T05:36:31.704Z,8.26
2023-10-21T05:38:58.062Z,8.27
2023-10-21T05:41:24.456Z,8.23
2023-10-21T05:43:50.673Z,8.27
2023-10-21T05:46:16.900Z,8.28
2023-10-21T05:48:43.339Z,8.24
2023-10-21T05:51:09.553Z,8.24
2023-10-21T05:53:35.892Z,8.23
2023-10-21T05:56:02.435Z,8.24
2023-10-21T05:58:33.067Z,8.23
2023-10-21T06:01:11.101Z,8.21
2023-10-21T06:03:37.978Z,8.19
2023-10-21T06:06:04.420Z,8.21
2023-10-21T06:08:30.972Z,8.21
2023-10-21T06:10:57.292Z,8.20
2023-10-21T06:13:25.199Z,8.20
2023-10-21T06:15:52.425Z,8.19
2023-10-21T06:18:19.813Z,8.19
2023-10-21T06:20:49.720Z,8.16
2023-10-21T06:23:16.858Z,8.17
2023-10-21T06:25:44.007Z,8.14
2023-10-21T06:28:11.884Z,8.15
2023-10-21T06:30:38.937Z,8.15
2023-10-21T06:33:05.333Z,8.14
2023-10-21T06:35:31.574Z,8.17
2023-10-21T06:37:57.897Z,8.16
2023-10-21T06:40:39.714Z,8.12
2023-10-21T06:43:10.573Z,8.15
2023-10-21T06:45:39.966Z,8.16
2023-10-21T06:48:07.220Z,8.14
2023-10-21T06:50:35.767Z,8.14
2023-10-21T06:53:02.092Z,8.16
2023-10-21T06:55:28.279Z,8.14
2023-10-21T06:57:54.551Z,8.13
2023-10-21T07:00:20.847Z,8.16
2023-10-21T07:02:47.406Z,8.18
2023-10-21T07:05:13.941Z,8.17
2023-10-21T07:07:41.903Z,8.18
2023-10-21T07:10:10.302Z,8.17
2023-10-21T07:12:37.735Z,8.20
2023-10-21T07:15:04.942Z,8.22
2023-10-21T07:17:33.091Z,8.17
2023-10-21T07:19:59.615Z,8.15
2023-10-21T07:22:26.362Z,8.13
2023-10-21T07:24:56.681Z,8.09
2023-10-21T07:27:24.979Z,8.11
2023-10-21T07:29:51.301Z,8.15
2023-10-21T07:32:17.566Z,8.20
2023-10-21T07:34:44.977Z,8.18
2023-10-21T07:37:11.282Z,8.17
2023-10-21T07:39:37.534Z,8.17
2023-10-21T07:42:05.190Z,8.13
2023-10-21T07:44:31.489Z,8.12
2023-10-21T07:46:57.953Z,8.14
2023-10-21T07:49:24.809Z,8.14
2023-10-21T07:51:51.499Z,8.18
2023-10-21T07:54:17.718Z,8.15
2023-10-21T07:56:50.778Z,8.16
2023-10-21T07:59:18.108Z,8.16
2023-10-21T08:01:44.349Z,8.15
2023-10-21T08:04:11.417Z,8.12
2023-10-21T08:06:38.236Z,8.13
2023-10-21T08:09:04.996Z,8.14
2023-10-21T08:11:32.782Z,8.15
2023-10-21T08:13:59.166Z,8.16
2023-10-21T08:16:25.426Z,8.18
2023-10-21T08:18:52.170Z,8.16
2023-10-21T08:21:18.745Z,8.13
2023-10-21T08:23:45.022Z,8.13
2023-10-21T08:26:11.334Z,8.11
2023-10-21T08:28:37.842Z,8.08
2023-10-21T08:31:04.115Z,8.12
2023-10-21T08:33:30.569Z,8.12
2023-10-21T08:35:56.796Z,8.15
2023-10-21T08:38:23.159Z,8.14
2023-10-21T08:40:49.531Z,8.19
2023-10-21T08:43:19.059Z,8.16
2023-10-21T08:45:46.499Z,8.14
2023-10-21T08:48:13.960Z,8.16
2023-10-21T08:50:41.266Z,8.16
2023-10-21T08:53:13.663Z,8.16
2023-10-21T08:55:40.430Z,8.16
2023-10-21T08:58:07.641Z,8.15
2023-10-21T09:00:34.696Z,8.17
2023-10-21T09:03:02.721Z,8.14
2023-10-21T09:05:29.225Z,8.11
2023-10-21T09:07:55.384Z,8.11
2023-10-21T09:10:21.820Z,8.11
2023-10-21T09:12:48.124Z,8.12
2023-10-21T09:15:14.562Z,8.09
2023-10-21T09:17:45.758Z,8.08
2023-10-21T09:20:14.126Z,8.06
2023-10-21T09:22:43.739Z,8.01
2023-10-21T09:25:21.319Z,8.01
2023-10-21T09:27:53.579Z,7.98
2023-10-21T09:30:30.010Z,7.96
2023-10-21T09:33:08.249Z,7.97
2023-10-21T09:35:38.267Z,7.97
2023-10-21T09:38:19.240Z,8.02
2023-10-21T09:40:46.133Z,8.01
2023-10-21T09:43:13.500Z,8.00
2023-10-21T09:45:44.959Z,7.94
2023-10-21T09:48:14.978Z,7.94
2023-10-21T09:51:06.610Z,7.94
2023-10-21T09:53:41.361Z,7.94
2023-10-21T09:56:12.091Z,7.97
2023-10-21T09:58:41.040Z,8.01
2023-10-21T10:01:11.251Z,8.01
2023-10-21T10:03:39.779Z,8.01
2023-10-21T10:06:08.150Z,8.04
2023-10-21T10:08:36.089Z,8.04
2023-10-21T10:11:12.359Z,8.06
2023-10-21T10:13:48.483Z,8.09
2023-10-21T10:16:24.235Z,8.13
2023-10-21T10:18:52.313Z,8.17
2023-10-21T10:21:19.244Z,8.20
2023-10-21T10:23:50.743Z,8.21
2023-10-21T10:26:38.644Z,8.23
2023-10-21T10:29:26.308Z,8.27
2023-10-21T10:32:15.453Z,8.29
2023-10-21T10:34:54.669Z,8.31
2023-10-21T10:37:50.847Z,8.35
2023-10-21T10:40:21.256Z,8.38
2023-10-21T10:42:47.973Z,8.41
2023-10-21T10:45:15.217Z,8.43
2023-10-21T10:47:41.799Z,8.45
2023-10-21T10:50:18.042Z,8.50
2023-10-21T10:52:46.914Z,8.53
2023-10-21T10:55:15.321Z,8.64
2023-10-21T10:57:43.219Z,8.66
2023-10-21T11:00:11.296Z,8.67
2023-10-21T11:02:43.921Z,8.68
2023-10-21T11:05:21.698Z,8.70
2023-10-21T11:07:53.046Z,8.72
2023-10-21T11:10:25.402Z,8.72
2023-10-21T11:12:52.566Z,8.76
2023-10-21T11:15:19.898Z,8.78
2023-10-21T11:17:52.048Z,8.79
2023-10-21T11:20:19.522Z,8.83
2023-10-21T11:22:45.902Z,8.86
2023-10-21T11:25:12.216Z,8.87
2023-10-21T11:27:40.300Z,8.92
2023-10-21T11:30:11.518Z,8.95
2023-10-21T11:32:38.302Z,8.97
2023-10-21T11:35:05.860Z,9.00
2023-10-21T11:37:32.904Z,9.02
2023-10-21T11:39:59.363Z,9.01
2023-10-21T11:42:25.658Z,9.04
2023-10-21T11:45:00.293Z,9.06
2023-10-21T11:47:28.599Z,9.08
2023-10-21T11:49:55.835Z,9.10
2023-10-21T11:52:24.458Z,9.09
2023-10-21T11:55:12.088Z,9.12
2023-10-21T11:58:02.076Z,9.16
2023-10-21T12:00:46.936Z,9.16
2023-10-21T12:03:43.074Z,9.19
2023-10-21T12:06:28.125Z,9.22
2023-10-21T12:08:54.716Z,9.24
2023-10-21T12:11:41.172Z,9.26
2023-10-21T12:14:10.120Z,9.25
2023-10-21T12:17:07.863Z,9.26
2023-10-21T12:19:40.539Z,9.31
2023-10-21T12:22:25.398Z,9.32
2023-10-21T12:25:10.626Z,9.32
2023-10-21T12:27:36.941Z,9.33
2023-10-21T12:30:18.481Z,9.33
2023-10-21T12:33:04.026Z,9.32
2023-10-21T12:35:36.478Z,9.33
2023-10-21T12:38:06.967Z,9.34
2023-10-21T12:40:38.344Z,9.35
2023-10-21T12:43:16.860Z,9.37
2023-10-21T12:45:49.535Z,9.37
2023-10-21T12:48:19.592Z,9.38
2023-10-21T12:50:55.207Z,9.37
2023-10-21T12:53:21.477Z,9.42
2023-10-21T12:55:48.003Z,9.40
2023-10-21T12:58:14.738Z,9.41
2023-10-21T13:00:44.132Z,9.44
2023-10-21T13:03:11.506Z,9.44
2023-10-21T13:05:44.263Z,9.45
2023-10-21T13:08:10.858Z,9.45
2023-10-21T13:10:37.496Z,9.51
2023-10-21T13:13:05.508Z,9.51
2023-10-21T13:15:31.861Z,9.51
2023-10-21T13:17:58.238Z,9.51
2023-10-21T13:20:24.584Z,9.56
2023-10-21T13:22:55.091Z,9.54
2023-10-21T13:25:26.049Z,9.53
2023-10-21T13:27:56.333Z,9.53
2023-10-21T13:30:22.931Z,9.55
2023-10-21T13:32:51.365Z,9.56
2023-10-21T13:35:17.737Z,9.57
2023-10-21T13:37:46.223Z,9.56
2023-10-21T13:40:17.208Z,9.59
2023-10-21T13:42:46.015Z,9.56
2023-10-21T13:45:22.362Z,9.57
2023-10-21T13:48:01.836Z,9.55
2023-10-21T13:50:30.062Z,9.55
2023-10-21T13:53:02.601Z,9.56
2023-10-21T13:55:29.699Z,9.55
2023-10-21T13:57:55.962Z,9.57
2023-10-21T14:00:36.010Z,9.56
2023-10-21T14:03:20.313Z,9.56
2023-10-21T14:05:49.245Z,9.57
2023-10-21T14:08:17.902Z,9.59
2023-10-21T14:10:45.992Z,9.60
2023-10-21T14:13:15.848Z,9.60
2023-10-21T14:15:45.112Z,9.60
2023-10-21T14:18:11.862Z,9.60
2023-10-21T14:20:43.020Z,9.60
2023-10-21T14:23:18.724Z,9.60
2023-10-21T14:25:46.856Z,9.60
2023-10-21T14:28:14.349Z,9.62
2023-10-21T14:30:49.115Z,9.63
2023-10-21T14:33:17.763Z,9.65
2023-10-21T14:35:45.630Z,9.64
2023-10-21T14:38:12.810Z,9.64
2023-10-21T14:40:40.372Z,9.65
2023-10-21T14:43:08.764Z,9.65
2023-10-21T14:45:40.828Z,9.66
2023-10-21T14:48:10.187Z,9.65
2023-10-21T14:50:40.749Z,9.66
2023-10-21T14:53:11.114Z,9.67
2023-10-21T14:55:51.558Z,9.68
2023-10-21T14:58:24.303Z,9.71
2023-10-21T15:00:52.906Z,9.69
2023-10-21T15:03:22.773Z,9.70
2023-10-21T15:05:49.768Z,9.71
2023-10-21T15:08:21.101Z,9.71
2023-10-21T15:10:49.126Z,9.72
2023-10-21T15:13:15.762Z,9.75
2023-10-21T15:15:43.463Z,9.75
2023-10-21T15:18:10.659Z,9.75
2023-10-21T15:20:37.380Z,9.76
2023-10-21T15:23:04.019Z,9.76
2023-10-21T15:25:31.409Z,9.77
2023-10-21T15:27:57.924Z,9.79
2023-10-21T15:30:24.310Z,9.81
2023-10-21T15:32:51.051Z,9.81
2023-10-21T15:35:18.430Z,9.83
2023-10-21T15:37:45.820Z,9.83
2023-10-21T15:40:13.873Z,9.84
2023-10-21T15:42:43.470Z,9.86
2023-10-21T15:45:11.204Z,9.86
2023-10-21T15:47:37.522Z,9.88
2023-10-21T15:50:04.750Z,9.89
2023-10-21T15:52:32.422Z,9.89
2023-10-21T15:54:59.034Z,9.89
2023-10-21T15:57:25.819Z,9.90
2023-10-21T15:59:54.988Z,9.92
2023-10-21T16:02:21.644Z,9.93
2023-10-21T16:04:47.998Z,9.95
2023-10-21T16:07:15.026Z,9.93
2023-10-21T16:09:41.296Z,9.95
2023-10-21T16:12:07.715Z,9.96
2023-10-21T16:14:34.090Z,9.95
2023-10-21T16:17:01.841Z,9.96
2023-10-21T16:19:28.933Z,9.96
2023-10-21T16:21:55.243Z,9.97
2023-10-21T16:24:22.524Z,9.98
2023-10-21T16:26:48.939Z,9.99
2023-10-21T16:29:15.771Z,9.99
2023-10-21T16:31:42.884Z,10.00
2023-10-21T16:34:10.019Z,10.01
2023-10-21T16:36:36.656Z,10.00
2023-10-21T16:39:03.159Z,10.03
2023-10-21T16:41:29.665Z,10.03
2023-10-21T16:43:56.232Z,10.03
2023-10-21T16:46:23.766Z,10.04
2023-10-21T16:48:50.235Z,10.07
2023-10-21T16:51:16.520Z,10.04
2023-10-21T16:53:42.866Z,10.07
2023-10-21T16:56:10.120Z,10.06
2023-10-21T16:58:37.172Z,10.07
2023-10-21T17:01:05.233Z,10.07
2023-10-21T17:03:31.520Z,10.07
2023-10-21T17:06:00.840Z,10.09
2023-10-21T17:08:34.619Z,10.06
2023-10-21T17:11:02.242Z,10.06
2023-10-21T17:13:28.651Z,10.06
2023-10-21T17:15:55.206Z,10.07
2023-10-21T17:18:24.237Z,10.08
2023-10-21T17:20:50.628Z,10.10
2023-10-21T17:23:16.876Z,10.09
2023-10-21T17:25:44.831Z,10.03
2023-10-21T17:28:11.143Z,9.99
2023-10-21T17:30:37.537Z,9.99
2023-10-21T17:33:05.192Z,9.98
2023-10-21T17:35:31.636Z,9.94
2023-10-21T17:37:58.135Z,9.92
2023-10-21T17:40:24.391Z,9.91
2023-10-21T17:42:50.842Z,9.89
2023-10-21T17:45:17.413Z,9.86
2023-10-21T17:47:43.740Z,9.83
2023-10-21T17:50:10.362Z,9.81
2023-10-21T17:52:36.637Z,9.83
2023-10-21T17:55:05.661Z,9.79
2023-10-21T17:57:32.125Z,9.78
2023-10-21T17:59:58.685Z,9.77
2023-10-21T18:02:25.082Z,9.75
2023-10-21T18:04:54.433Z,9.72
2023-10-21T18:07:20.917Z,9.74
2023-10-21T18:09:47.237Z,9.67
2023-10-21T18:12:14.525Z,9.69
2023-10-21T18:14:40.918Z,9.67
2023-10-21T18:17:07.375Z,9.66
2023-10-21T18:19:33.963Z,9.66
2023-10-21T18:22:02.956Z,9.66
2023-10-21T18:24:29.591Z,9.59
2023-10-21T18:26:55.997Z,9.63
2023-10-21T18:29:22.332Z,9.63
2023-10-21T18:31:48.758Z,9.60
2023-10-21T18:34:15.092Z,9.60
2023-10-21T18:36:41.522Z,9.59
2023-10-21T18:39:08.578Z,9.61
2023-10-21T18:41:34.884Z,9.61
2023-10-21T18:44:01.286Z,9.57
2023-10-21T18:46:27.680Z,9.56
2023-10-21T18:48:54.250Z,9.59
2023-10-21T18:51:25.989Z,9.57
2023-10-21T18:53:52.499Z,9.61
2023-10-21T18:56:18.917Z,9.62
2023-10-21T18:58:45.477Z,9.63
2023-10-21T19:01:11.851Z,9.62
2023-10-21T19:03:38.392Z,9.60
2023-10-21T19:06:04.866Z,9.61
2023-10-21T19:08:31.897Z,9.56
2023-10-21T19:10:58.336Z,9.59
2023-10-21T19:13:24.827Z,9.60
2023-10-21T19:15:51.222Z,9.55
2023-10-21T19:18:17.748Z,9.57
2023-10-21T19:20:44.157Z,9.60
2023-10-21T19:23:10.684Z,9.60
2023-10-21T19:25:36.950Z,9.61
2023-10-21T19:28:03.479Z,9.62
2023-10-21T19:30:30.211Z,9.61
2023-10-21T19:32:56.884Z,9.57
2023-10-21T19:35:23.158Z,9.59
2023-10-21T19:37:49.955Z,9.54
2023-10-21T19:40:17.639Z,9.57
2023-10-21T19:42:44.977Z,9.57
2023-10-21T19:45:12.066Z,9.57
2023-10-21T19:47:38.869Z,9.60
2023-10-21T19:50:06.996Z,9.59
2023-10-21T19:52:33.478Z,9.60
2023-10-21T19:54:59.872Z,9.60
2023-10-21T19:57:26.291Z,9.62
2023-10-21T19:59:52.541Z,9.61
2023-10-21T20:02:18.963Z,9.61
2023-10-21T20:04:47.173Z,9.60
2023-10-21T20:07:13.567Z,9.59
2023-10-21T20:09:42.767Z,9.61
2023-10-21T20:12:09.180Z,9.60
2023-10-21T20:14:38.020Z,9.61
2023-10-21T20:17:04.423Z,9.61
2023-10-21T20:19:32.277Z,9.59
2023-10-21T20:22:00.849Z,9.60
2023-10-21T20:24:27.233Z,9.57
2023-10-21T20:26:53.569Z,9.57
2023-10-21T20:29:19.906Z,9.56
2023-10-21T20:31:47.429Z,9.54
2023-10-21T20:34:15.558Z,9.52
2023-10-21T20:36:41.781Z,9.52
2023-10-21T20:39:09.269Z,9.51
2023-10-21T20:41:39.878Z,9.48
2023-10-21T20:44:06.231Z,9.49
2023-10-21T20:46:32.498Z,9.46
2023-10-21T20:48:59.466Z,9.45
2023-10-21T20:51:26.137Z,9.42
2023-10-21T20:53:52.793Z,9.41
2023-10-21T20:56:25.238Z,9.41
2023-10-21T20:58:53.860Z,9.39
2023-10-21T21:01:30.967Z,9.40
2023-10-21T21:04:04.464Z,9.38
2023-10-21T21:06:30.707Z,9.36
2023-10-21T21:08:57.587Z,9.35
2023-10-21T21:11:24.203Z,9.35
2023-10-21T21:13:50.672Z,9.33
2023-10-21T21:16:17.092Z,9.32
2023-10-21T21:18:43.621Z,9.32
2023-10-21T21:21:09.856Z,9.27
2023-10-21T21:23:36.036Z,9.24
2023-10-21T21:26:03.672Z,9.26
2023-10-21T21:28:30.510Z,9.29
2023-10-21T21:30:57.832Z,9.27
2023-10-21T21:33:24.317Z,9.21
2023-10-21T21:36:17.558Z,9.23
2023-10-21T21:38:44.215Z,9.23
2023-10-21T21:41:15.810Z,9.20
2023-10-21T21:43:43.132Z,9.22
2023-10-21T21:46:20.140Z,9.20
2023-10-21T21:48:47.766Z,9.19
2023-10-21T21:51:14.628Z,9.18
2023-10-21T21:53:41.129Z,9.17
2023-10-21T21:56:07.498Z,9.15
2023-10-21T21:58:37.282Z,9.15
2023-10-21T22:01:07.039Z,9.12
2023-10-21T22:03:35.123Z,9.12
2023-10-21T22:06:02.129Z,9.09
2023-10-21T22:08:28.432Z,9.09
2023-10-21T22:10:54.848Z,9.07
2023-10-21T22:13:21.124Z,9.08
2023-10-21T22:15:50.228Z,9.07
2023-10-21T22:18:17.222Z,9.05
2023-10-21T22:20:43.512Z,9.04
2023-10-21T22:23:12.505Z,9.03
2023-10-21T22:25:39.310Z,8.98
2023-10-21T22:28:12.910Z,8.94
2023-10-21T22:30:41.356Z,8.92
2023-10-21T22:33:08.263Z,8.90
2023-10-21T22:35:34.911Z,8.93
2023-10-21T22:38:03.287Z,8.91
2023-10-21T22:40:29.819Z,8.92
2023-10-21T22:42:56.291Z,8.92
2023-10-21T22:45:23.043Z,8.90
2023-10-21T22:47:49.528Z,8.89
2023-10-21T22:50:18.193Z,8.91
2023-10-21T22:52:44.551Z,8.92
2023-10-21T22:55:11.983Z,8.92
2023-10-21T22:57:38.891Z,8.90
2023-10-21T23:00:14.231Z,8.88
2023-10-21T23:02:42.796Z,8.88
2023-10-21T23:05:11.032Z,8.86
2023-10-21T23:07:38.555Z,8.86
2023-10-21T23:10:21.980Z,8.81
2023-10-21T23:12:51.872Z,8.81
2023-10-21T23:15:20.266Z,8.78
2023-10-21T23:17:48.458Z,8.76
2023-10-21T23:20:16.839Z,8.74
2023-10-21T23:22:44.468Z,8.76
2023-10-21T23:25:11.341Z,8.74
2023-10-21T23:27:43.392Z,8.76
2023-10-21T23:30:11.817Z,8.76
2023-10-21T23:32:38.885Z,8.75
2023-10-21T23:35:06.358Z,8.72
2023-10-21T23:37:33.069Z,8.70
2023-10-21T23:39:59.671Z,8.73
2023-10-21T23:42:29.561Z,8.72
2023-10-21T23:44:58.709Z,8.71
2023-10-21T23:47:26.440Z,8.71
2023-10-21T23:49:56.742Z,8.68
2023-10-21T23:52:26.471Z,8.66
2023-10-21T23:54:53.600Z,8.64
2023-10-21T23:57:19.842Z,8.65
2023-10-21T23:59:46.231Z,8.63
